sensor_id;sensor_type;location;lat;lon;timestamp;P1;durP1;ratioP1;P2;durP2;ratioP2
27145;SDS011;17980;51.744;7.190;2022-08-21T00:01:09;4.80;;;1.60;;
27145;SDS011;17980;51.744;7.190;2022-08-21T00:03:39;7.43;;;1.73;;
27145;SDS011;17980;51.744;7.190;2022-08-21T00:06:06;8.33;;;2.00;;
27145;SDS011;17980;51.744;7.190;2022-08-21T00:08:34;7.37;;;2.23;;
27145;SDS011;17980;51.744;7.190;2022-08-21T00:11:02;5.13;;;1.73;;
27145;SDS011;17980;51.744;7.190;2022-08-21T00:13:39;7.27;;;2.47;;
27145;SDS011;17980;51.744;7.190;2022-08-21T00:16:07;6.23;;;1.87;;
27145;SDS011;17980;51.744;7.190;2022-08-21T00:18:34;6.47;;;1.60;;
27145;SDS011;17980;51.744;7.190;2022-08-21T00:21:02;4.87;;;2.27;;
27145;SDS011;17980;51.744;7.190;2022-08-21T00:23:38;5.60;;;2.23;;
27145;SDS011;17980;51.744;7.190;2022-08-21T00:26:07;8.00;;;2.73;;
27145;SDS011;17980;51.744;7.190;2022-08-21T00:28:34;5.00;;;2.43;;
27145;SDS011;17980;51.744;7.190;2022-08-21T00:31:11;9.03;;;2.30;;
27145;SDS011;17980;51.744;7.190;2022-08-21T00:33:39;5.10;;;2.93;;
27145;SDS011;17980;51.744;7.190;2022-08-21T00:36:07;7.43;;;2.17;;
27145;SDS011;17980;51.744;7.190;2022-08-21T00:38:36;6.67;;;2.30;;
27145;SDS011;17980;51.744;7.190;2022-08-21T00:41:05;12.03;;;2.30;;
27145;SDS011;17980;51.744;7.190;2022-08-21T00:43:42;7.73;;;2.40;;
27145;SDS011;17980;51.744;7.190;2022-08-21T00:46:10;7.67;;;2.40;;
27145;SDS011;17980;51.744;7.190;2022-08-21T00:48:38;7.83;;;2.50;;
27145;SDS011;17980;51.744;7.190;2022-08-21T00:51:07;8.30;;;2.73;;
27145;SDS011;17980;51.744;7.190;2022-08-21T00:53:37;6.00;;;2.33;;
27145;SDS011;17980;51.744;7.190;2022-08-21T00:56:08;6.17;;;1.90;;
27145;SDS011;17980;51.744;7.190;2022-08-21T00:58:38;8.00;;;2.90;;
27145;SDS011;17980;51.744;7.190;2022-08-21T01:01:16;7.00;;;1.83;;
27145;SDS011;17980;51.744;7.190;2022-08-21T01:03:43;7.60;;;2.53;;
27145;SDS011;17980;51.744;7.190;2022-08-21T01:06:12;5.93;;;2.30;;
27145;SDS011;17980;51.744;7.190;2022-08-21T01:08:43;7.80;;;2.03;;
27145;SDS011;17980;51.744;7.190;2022-08-21T01:11:12;6.27;;;2.17;;
27145;SDS011;17980;51.744;7.190;2022-08-21T01:13:49;11.40;;;1.93;;
27145;SDS011;17980;51.744;7.190;2022-08-21T01:16:19;8.33;;;2.90;;
27145;SDS011;17980;51.744;7.190;2022-08-21T01:18:47;3.87;;;2.20;;
27145;SDS011;17980;51.744;7.190;2022-08-21T01:21:18;6.80;;;2.33;;
27145;SDS011;17980;51.744;7.190;2022-08-21T01:23:56;6.37;;;2.10;;
27145;SDS011;17980;51.744;7.190;2022-08-21T01:26:24;3.80;;;2.00;;
27145;SDS011;17980;51.744;7.190;2022-08-21T01:28:58;7.73;;;2.17;;
27145;SDS011;17980;51.744;7.190;2022-08-21T01:31:33;6.40;;;2.30;;
27145;SDS011;17980;51.744;7.190;2022-08-21T01:34:01;7.87;;;2.50;;
27145;SDS011;17980;51.744;7.190;2022-08-21T01:36:28;4.20;;;2.20;;
27145;SDS011;17980;51.744;7.190;2022-08-21T01:38:56;7.50;;;2.50;;
27145;SDS011;17980;51.744;7.190;2022-08-21T01:41:24;7.33;;;2.60;;
27145;SDS011;17980;51.744;7.190;2022-08-21T01:44:01;8.43;;;2.53;;
27145;SDS011;17980;51.744;7.190;2022-08-21T01:46:29;5.63;;;2.03;;
27145;SDS011;17980;51.744;7.190;2022-08-21T01:48:56;5.97;;;2.10;;
27145;SDS011;17980;51.744;7.190;2022-08-21T01:51:24;5.97;;;2.27;;
27145;SDS011;17980;51.744;7.190;2022-08-21T01:53:52;6.20;;;2.40;;
27145;SDS011;17980;51.744;7.190;2022-08-21T01:56:19;5.93;;;2.07;;
27145;SDS011;17980;51.744;7.190;2022-08-21T01:58:47;7.13;;;2.23;;
27145;SDS011;17980;51.744;7.190;2022-08-21T02:01:14;3.97;;;1.93;;
27145;SDS011;17980;51.744;7.190;2022-08-21T02:03:42;5.43;;;1.80;;
27145;SDS011;17980;51.744;7.190;2022-08-21T02:06:12;4.17;;;1.90;;
27145;SDS011;17980;51.744;7.190;2022-08-21T02:08:43;3.83;;;2.13;;
27145;SDS011;17980;51.744;7.190;2022-08-21T02:11:11;7.33;;;2.30;;
27145;SDS011;17980;51.744;7.190;2022-08-21T02:13:48;3.60;;;1.97;;
27145;SDS011;17980;51.744;7.190;2022-08-21T02:16:15;5.77;;;2.20;;
27145;SDS011;17980;51.744;7.190;2022-08-21T02:18:43;10.07;;;2.40;;
27145;SDS011;17980;51.744;7.190;2022-08-21T02:21:10;4.50;;;2.50;;
27145;SDS011;17980;51.744;7.190;2022-08-21T02:23:37;8.30;;;2.77;;
27145;SDS011;17980;51.744;7.190;2022-08-21T02:26:05;3.93;;;2.30;;
27145;SDS011;17980;51.744;7.190;2022-08-21T02:28:37;8.53;;;2.20;;
27145;SDS011;17980;51.744;7.190;2022-08-21T02:31:05;5.33;;;2.20;;
27145;SDS011;17980;51.744;7.190;2022-08-21T02:33:33;3.57;;;1.80;;
27145;SDS011;17980;51.744;7.190;2022-08-21T02:36:00;3.67;;;2.17;;
27145;SDS011;17980;51.744;7.190;2022-08-21T02:38:30;4.57;;;2.10;;
27145;SDS011;17980;51.744;7.190;2022-08-21T02:41:00;4.73;;;2.80;;
27145;SDS011;17980;51.744;7.190;2022-08-21T02:43:28;9.60;;;2.27;;
27145;SDS011;17980;51.744;7.190;2022-08-21T02:45:55;6.83;;;2.63;;
27145;SDS011;17980;51.744;7.190;2022-08-21T02:48:24;5.47;;;2.33;;
27145;SDS011;17980;51.744;7.190;2022-08-21T02:51:03;3.20;;;1.93;;
27145;SDS011;17980;51.744;7.190;2022-08-21T02:53:33;6.97;;;2.40;;
27145;SDS011;17980;51.744;7.190;2022-08-21T02:56:02;6.27;;;2.33;;
27145;SDS011;17980;51.744;7.190;2022-08-21T02:58:33;6.20;;;2.40;;
27145;SDS011;17980;51.744;7.190;2022-08-21T03:01:05;5.90;;;2.37;;
27145;SDS011;17980;51.744;7.190;2022-08-21T03:03:35;4.77;;;2.20;;
27145;SDS011;17980;51.744;7.190;2022-08-21T03:06:13;4.87;;;2.23;;
27145;SDS011;17980;51.744;7.190;2022-08-21T03:08:41;7.17;;;2.43;;
27145;SDS011;17980;51.744;7.190;2022-08-21T03:11:11;4.03;;;1.93;;
27145;SDS011;17980;51.744;7.190;2022-08-21T03:13:48;5.03;;;2.23;;
27145;SDS011;17980;51.744;7.190;2022-08-21T03:16:15;9.43;;;2.60;;
27145;SDS011;17980;51.744;7.190;2022-08-21T03:18:44;6.40;;;2.37;;
27145;SDS011;17980;51.744;7.190;2022-08-21T03:21:21;6.70;;;2.50;;
27145;SDS011;17980;51.744;7.190;2022-08-21T03:23:49;3.63;;;2.00;;
27145;SDS011;17980;51.744;7.190;2022-08-21T03:26:16;2.90;;;1.93;;
27145;SDS011;17980;51.744;7.190;2022-08-21T03:28:44;8.57;;;2.73;;
27145;SDS011;17980;51.744;7.190;2022-08-21T03:31:21;3.60;;;1.97;;
27145;SDS011;17980;51.744;7.190;2022-08-21T03:33:48;4.77;;;1.87;;
27145;SDS011;17980;51.744;7.190;2022-08-21T03:36:16;4.17;;;2.37;;
27145;SDS011;17980;51.744;7.190;2022-08-21T03:38:43;6.10;;;2.00;;
27145;SDS011;17980;51.744;7.190;2022-08-21T03:41:11;2.93;;;2.20;;
27145;SDS011;17980;51.744;7.190;2022-08-21T03:43:48;5.20;;;2.03;;
27145;SDS011;17980;51.744;7.190;2022-08-21T03:46:15;5.60;;;1.73;;
27145;SDS011;17980;51.744;7.190;2022-08-21T03:48:42;3.27;;;2.40;;
27145;SDS011;17980;51.744;7.190;2022-08-21T03:51:10;2.93;;;2.00;;
27145;SDS011;17980;51.744;7.190;2022-08-21T03:53:37;9.07;;;2.33;;
27145;SDS011;17980;51.744;7.190;2022-08-21T03:56:06;7.50;;;2.23;;
27145;SDS011;17980;51.744;7.190;2022-08-21T03:58:33;5.63;;;2.50;;
27145;SDS011;17980;51.744;7.190;2022-08-21T04:01:10;4.63;;;2.17;;
27145;SDS011;17980;51.744;7.190;2022-08-21T04:03:38;6.10;;;2.47;;
27145;SDS011;17980;51.744;7.190;2022-08-21T04:06:06;4.90;;;1.93;;
27145;SDS011;17980;51.744;7.190;2022-08-21T04:08:34;5.97;;;2.33;;
27145;SDS011;17980;51.744;7.190;2022-08-21T04:11:02;7.03;;;2.20;;
27145;SDS011;17980;51.744;7.190;2022-08-21T04:13:39;6.87;;;2.23;;
27145;SDS011;17980;51.744;7.190;2022-08-21T04:16:07;6.37;;;2.67;;
27145;SDS011;17980;51.744;7.190;2022-08-21T04:18:35;7.27;;;3.13;;
27145;SDS011;17980;51.744;7.190;2022-08-21T04:21:02;2.57;;;2.23;;
27145;SDS011;17980;51.744;7.190;2022-08-21T04:23:32;5.50;;;2.83;;
27145;SDS011;17980;51.744;7.190;2022-08-21T04:25:59;5.10;;;2.47;;
27145;SDS011;17980;51.744;7.190;2022-08-21T04:28:27;4.37;;;2.20;;
27145;SDS011;17980;51.744;7.190;2022-08-21T04:31:04;6.53;;;2.70;;
27145;SDS011;17980;51.744;7.190;2022-08-21T04:33:32;10.80;;;3.03;;
27145;SDS011;17980;51.744;7.190;2022-08-21T04:35:59;6.53;;;2.40;;
27145;SDS011;17980;51.744;7.190;2022-08-21T04:38:30;3.73;;;2.33;;
27145;SDS011;17980;51.744;7.190;2022-08-21T04:40:57;5.17;;;2.40;;
27145;SDS011;17980;51.744;7.190;2022-08-21T04:43:35;7.90;;;2.10;;
27145;SDS011;17980;51.744;7.190;2022-08-21T04:46:04;4.27;;;2.37;;
27145;SDS011;17980;51.744;7.190;2022-08-21T04:48:34;5.20;;;2.40;;
27145;SDS011;17980;51.744;7.190;2022-08-21T04:51:07;8.60;;;2.67;;
27145;SDS011;17980;51.744;7.190;2022-08-21T04:53:45;6.13;;;2.63;;
27145;SDS011;17980;51.744;7.190;2022-08-21T04:56:18;2.47;;;1.60;;
27145;SDS011;17980;51.744;7.190;2022-08-21T04:58:46;3.23;;;2.03;;
27145;SDS011;17980;51.744;7.190;2022-08-21T05:01:25;4.17;;;2.70;;
27145;SDS011;17980;51.744;7.190;2022-08-21T05:03:54;9.70;;;2.53;;
27145;SDS011;17980;51.744;7.190;2022-08-21T05:06:25;5.57;;;2.60;;
27145;SDS011;17980;51.744;7.190;2022-08-21T05:08:54;3.37;;;2.13;;
27145;SDS011;17980;51.744;7.190;2022-08-21T05:11:22;4.10;;;2.00;;
27145;SDS011;17980;51.744;7.190;2022-08-21T05:13:50;6.30;;;2.70;;
27145;SDS011;17980;51.744;7.190;2022-08-21T05:16:17;6.37;;;2.50;;
27145;SDS011;17980;51.744;7.190;2022-08-21T05:18:46;4.47;;;2.63;;
27145;SDS011;17980;51.744;7.190;2022-08-21T05:21:14;6.77;;;2.43;;
27145;SDS011;17980;51.744;7.190;2022-08-21T05:23:41;5.60;;;2.60;;
27145;SDS011;17980;51.744;7.190;2022-08-21T05:26:08;5.23;;;3.37;;
27145;SDS011;17980;51.744;7.190;2022-08-21T05:28:36;7.43;;;2.60;;
27145;SDS011;17980;51.744;7.190;2022-08-21T05:31:05;5.37;;;2.63;;
27145;SDS011;17980;51.744;7.190;2022-08-21T05:33:32;5.07;;;2.90;;
27145;SDS011;17980;51.744;7.190;2022-08-21T05:35:59;9.83;;;3.53;;
27145;SDS011;17980;51.744;7.190;2022-08-21T05:38:26;7.27;;;3.23;;
27145;SDS011;17980;51.744;7.190;2022-08-21T05:40:54;10.50;;;4.23;;
27145;SDS011;17980;51.744;7.190;2022-08-21T05:43:31;8.57;;;3.73;;
27145;SDS011;17980;51.744;7.190;2022-08-21T05:46:00;8.40;;;3.73;;
27145;SDS011;17980;51.744;7.190;2022-08-21T05:48:27;8.13;;;3.03;;
27145;SDS011;17980;51.744;7.190;2022-08-21T05:51:05;4.17;;;2.77;;
27145;SDS011;17980;51.744;7.190;2022-08-21T05:53:34;7.77;;;3.00;;
27145;SDS011;17980;51.744;7.190;2022-08-21T05:56:03;11.27;;;4.17;;
27145;SDS011;17980;51.744;7.190;2022-08-21T05:58:32;6.17;;;3.37;;
27145;SDS011;17980;51.744;7.190;2022-08-21T06:01:00;10.40;;;4.67;;
27145;SDS011;17980;51.744;7.190;2022-08-21T06:03:32;12.37;;;4.13;;
27145;SDS011;17980;51.744;7.190;2022-08-21T06:06:03;9.37;;;4.10;;
27145;SDS011;17980;51.744;7.190;2022-08-21T06:08:31;8.07;;;4.03;;
27145;SDS011;17980;51.744;7.190;2022-08-21T06:10:59;8.07;;;4.73;;
27145;SDS011;17980;51.744;7.190;2022-08-21T06:13:27;12.47;;;5.43;;
27145;SDS011;17980;51.744;7.190;2022-08-21T06:16:01;13.00;;;6.17;;
27145;SDS011;17980;51.744;7.190;2022-08-21T06:18:32;9.20;;;5.60;;
27145;SDS011;17980;51.744;7.190;2022-08-21T06:21:00;10.60;;;5.40;;
27145;SDS011;17980;51.744;7.190;2022-08-21T06:23:27;8.67;;;5.20;;
27145;SDS011;17980;51.744;7.190;2022-08-21T06:25:54;12.87;;;5.37;;
27145;SDS011;17980;51.744;7.190;2022-08-21T06:28:22;9.97;;;6.17;;
27145;SDS011;17980;51.744;7.190;2022-08-21T06:30:59;11.13;;;5.73;;
27145;SDS011;17980;51.744;7.190;2022-08-21T06:33:27;10.57;;;6.33;;
27145;SDS011;17980;51.744;7.190;2022-08-21T06:35:54;12.47;;;6.87;;
27145;SDS011;17980;51.744;7.190;2022-08-21T06:38:21;11.07;;;7.43;;
27145;SDS011;17980;51.744;7.190;2022-08-21T06:40:49;8.53;;;6.47;;
27145;SDS011;17980;51.744;7.190;2022-08-21T06:43:25;11.40;;;7.63;;
27145;SDS011;17980;51.744;7.190;2022-08-21T06:45:53;9.97;;;6.53;;
27145;SDS011;17980;51.744;7.190;2022-08-21T06:48:23;8.50;;;6.73;;
27145;SDS011;17980;51.744;7.190;2022-08-21T06:51:00;10.80;;;6.80;;
27145;SDS011;17980;51.744;7.190;2022-08-21T06:53:28;13.33;;;7.03;;
27145;SDS011;17980;51.744;7.190;2022-08-21T06:55:55;10.57;;;6.47;;
27145;SDS011;17980;51.744;7.190;2022-08-21T06:58:23;12.83;;;6.00;;
27145;SDS011;17980;51.744;7.190;2022-08-21T07:00:50;11.47;;;5.90;;
27145;SDS011;17980;51.744;7.190;2022-08-21T07:03:19;13.17;;;5.70;;
27145;SDS011;17980;51.744;7.190;2022-08-21T07:05:49;15.40;;;6.07;;
27145;SDS011;17980;51.744;7.190;2022-08-21T07:08:17;10.63;;;5.60;;
27145;SDS011;17980;51.744;7.190;2022-08-21T07:10:44;9.00;;;5.30;;
27145;SDS011;17980;51.744;7.190;2022-08-21T07:13:13;11.77;;;6.57;;
27145;SDS011;17980;51.744;7.190;2022-08-21T07:15:50;10.23;;;5.13;;
27145;SDS011;17980;51.744;7.190;2022-08-21T07:18:17;9.30;;;4.90;;
27145;SDS011;17980;51.744;7.190;2022-08-21T07:20:55;8.83;;;4.30;;
27145;SDS011;17980;51.744;7.190;2022-08-21T07:23:22;11.80;;;4.60;;
27145;SDS011;17980;51.744;7.190;2022-08-21T07:25:52;10.83;;;4.33;;
27145;SDS011;17980;51.744;7.190;2022-08-21T07:30:56;9.60;;;3.50;;
27145;SDS011;17980;51.744;7.190;2022-08-21T07:33:26;6.73;;;3.47;;
27145;SDS011;17980;51.744;7.190;2022-08-21T07:35:55;11.60;;;3.80;;
27145;SDS011;17980;51.744;7.190;2022-08-21T07:38:23;10.00;;;3.33;;
27145;SDS011;17980;51.744;7.190;2022-08-21T07:40:51;14.20;;;4.07;;
27145;SDS011;17980;51.744;7.190;2022-08-21T07:43:29;9.10;;;3.53;;
27145;SDS011;17980;51.744;7.190;2022-08-21T07:45:58;9.43;;;3.00;;
27145;SDS011;17980;51.744;7.190;2022-08-21T07:48:26;6.57;;;2.83;;
27145;SDS011;17980;51.744;7.190;2022-08-21T07:51:05;7.13;;;2.73;;
27145;SDS011;17980;51.744;7.190;2022-08-21T07:53:36;11.07;;;3.40;;
27145;SDS011;17980;51.744;7.190;2022-08-21T07:56:04;8.50;;;1.90;;
27145;SDS011;17980;51.744;7.190;2022-08-21T07:58:33;5.30;;;2.03;;
27145;SDS011;17980;51.744;7.190;2022-08-21T08:01:10;4.07;;;1.70;;
27145;SDS011;17980;51.744;7.190;2022-08-21T08:03:38;9.27;;;2.17;;
27145;SDS011;17980;51.744;7.190;2022-08-21T08:06:06;6.63;;;1.40;;
27145;SDS011;17980;51.744;7.190;2022-08-21T08:08:35;5.37;;;2.30;;
27145;SDS011;17980;51.744;7.190;2022-08-21T08:11:03;6.80;;;2.33;;
27145;SDS011;17980;51.744;7.190;2022-08-21T08:13:30;10.00;;;1.80;;
27145;SDS011;17980;51.744;7.190;2022-08-21T08:15:58;10.60;;;4.63;;
27145;SDS011;17980;51.744;7.190;2022-08-21T08:18:25;9.10;;;2.13;;
27145;SDS011;17980;51.744;7.190;2022-08-21T08:21:02;10.00;;;3.27;;
27145;SDS011;17980;51.744;7.190;2022-08-21T08:23:30;8.70;;;2.63;;
27145;SDS011;17980;51.744;7.190;2022-08-21T08:25:58;9.43;;;2.23;;
27145;SDS011;17980;51.744;7.190;2022-08-21T08:28:28;5.53;;;2.00;;
27145;SDS011;17980;51.744;7.190;2022-08-21T08:31:04;8.33;;;1.90;;
27145;SDS011;17980;51.744;7.190;2022-08-21T08:33:32;5.77;;;1.87;;
27145;SDS011;17980;51.744;7.190;2022-08-21T08:35:59;7.80;;;2.33;;
27145;SDS011;17980;51.744;7.190;2022-08-21T08:38:26;4.73;;;1.63;;
27145;SDS011;17980;51.744;7.190;2022-08-21T08:40:55;7.60;;;2.30;;
27145;SDS011;17980;51.744;7.190;2022-08-21T08:43:34;6.03;;;2.03;;
27145;SDS011;17980;51.744;7.190;2022-08-21T08:46:04;7.03;;;2.37;;
27145;SDS011;17980;51.744;7.190;2022-08-21T08:48:43;9.70;;;2.13;;
27145;SDS011;17980;51.744;7.190;2022-08-21T08:51:16;9.27;;;2.03;;
27145;SDS011;17980;51.744;7.190;2022-08-21T08:53:47;6.87;;;1.57;;
27145;SDS011;17980;51.744;7.190;2022-08-21T08:56:27;7.90;;;1.50;;
27145;SDS011;17980;51.744;7.190;2022-08-21T08:58:57;3.10;;;1.17;;
27145;SDS011;17980;51.744;7.190;2022-08-21T09:01:35;9.53;;;1.90;;
27145;SDS011;17980;51.744;7.190;2022-08-21T09:04:03;8.27;;;1.50;;
27145;SDS011;17980;51.744;7.190;2022-08-21T09:06:43;7.00;;;1.43;;
27145;SDS011;17980;51.744;7.190;2022-08-21T09:09:19;8.53;;;1.60;;
27145;SDS011;17980;51.744;7.190;2022-08-21T09:11:52;4.77;;;1.47;;
27145;SDS011;17980;51.744;7.190;2022-08-21T09:14:36;5.60;;;1.30;;
27145;SDS011;17980;51.744;7.190;2022-08-21T09:17:19;4.50;;;1.40;;
27145;SDS011;17980;51.744;7.190;2022-08-21T09:19:56;9.70;;;1.70;;
27145;SDS011;17980;51.744;7.190;2022-08-21T09:22:37;6.13;;;1.37;;
27145;SDS011;17980;51.744;7.190;2022-08-21T09:25:10;3.87;;;1.50;;
27145;SDS011;17980;51.744;7.190;2022-08-21T09:27:47;7.90;;;1.30;;
27145;SDS011;17980;51.744;7.190;2022-08-21T09:30:16;4.33;;;1.00;;
27145;SDS011;17980;51.744;7.190;2022-08-21T09:32:46;2.70;;;0.87;;
27145;SDS011;17980;51.744;7.190;2022-08-21T09:35:14;3.97;;;1.10;;
27145;SDS011;17980;51.744;7.190;2022-08-21T09:37:52;3.30;;;1.00;;
27145;SDS011;17980;51.744;7.190;2022-08-21T09:40:28;1.83;;;0.87;;
27145;SDS011;17980;51.744;7.190;2022-08-21T09:43:06;1.90;;;0.80;;
27145;SDS011;17980;51.744;7.190;2022-08-21T09:45:40;3.83;;;0.80;;
27145;SDS011;17980;51.744;7.190;2022-08-21T09:48:09;5.53;;;0.87;;
27145;SDS011;17980;51.744;7.190;2022-08-21T09:50:38;3.17;;;0.93;;
27145;SDS011;17980;51.744;7.190;2022-08-21T09:53:13;2.67;;;1.17;;
27145;SDS011;17980;51.744;7.190;2022-08-21T09:55:47;4.90;;;1.40;;
27145;SDS011;17980;51.744;7.190;2022-08-21T09:58:36;2.50;;;0.80;;
27145;SDS011;17980;51.744;7.190;2022-08-21T10:01:05;5.30;;;0.90;;
27145;SDS011;17980;51.744;7.190;2022-08-21T10:03:35;2.97;;;0.70;;
27145;SDS011;17980;51.744;7.190;2022-08-21T10:06:06;7.43;;;1.17;;
27145;SDS011;17980;51.744;7.190;2022-08-21T10:08:37;3.23;;;0.60;;
27145;SDS011;17980;51.744;7.190;2022-08-21T10:11:07;2.33;;;0.73;;
27145;SDS011;17980;51.744;7.190;2022-08-21T10:13:43;2.13;;;0.80;;
27145;SDS011;17980;51.744;7.190;2022-08-21T10:16:27;5.37;;;0.80;;
27145;SDS011;17980;51.744;7.190;2022-08-21T10:19:02;4.57;;;0.60;;
27145;SDS011;17980;51.744;7.190;2022-08-21T10:21:43;2.27;;;0.87;;
27145;SDS011;17980;51.744;7.190;2022-08-21T10:24:14;2.80;;;0.60;;
27145;SDS011;17980;51.744;7.190;2022-08-21T10:26:47;3.27;;;0.73;;
27145;SDS011;17980;51.744;7.190;2022-08-21T10:29:20;2.03;;;0.67;;
27145;SDS011;17980;51.744;7.190;2022-08-21T10:31:55;4.50;;;0.60;;
27145;SDS011;17980;51.744;7.190;2022-08-21T10:34:27;4.83;;;0.70;;
27145;SDS011;17980;51.744;7.190;2022-08-21T10:37:04;3.17;;;0.60;;
27145;SDS011;17980;51.744;7.190;2022-08-21T10:39:48;1.47;;;0.50;;
27145;SDS011;17980;51.744;7.190;2022-08-21T10:42:29;2.60;;;1.00;;
27145;SDS011;17980;51.744;7.190;2022-08-21T10:45:05;3.37;;;0.80;;
27145;SDS011;17980;51.744;7.190;2022-08-21T10:47:46;2.93;;;0.90;;
27145;SDS011;17980;51.744;7.190;2022-08-21T10:50:19;5.17;;;0.80;;
27145;SDS011;17980;51.744;7.190;2022-08-21T10:52:54;2.73;;;0.70;;
27145;SDS011;17980;51.744;7.190;2022-08-21T10:55:35;5.10;;;1.00;;
27145;SDS011;17980;51.744;7.190;2022-08-21T10:58:08;4.10;;;1.07;;
27145;SDS011;17980;51.744;7.190;2022-08-21T11:00:45;2.07;;;0.70;;
27145;SDS011;17980;51.744;7.190;2022-08-21T11:03:17;2.70;;;0.60;;
27145;SDS011;17980;51.744;7.190;2022-08-21T11:05:48;2.57;;;0.70;;
27145;SDS011;17980;51.744;7.190;2022-08-21T11:08:18;5.63;;;0.87;;
27145;SDS011;17980;51.744;7.190;2022-08-21T11:10:59;1.50;;;0.53;;
27145;SDS011;17980;51.744;7.190;2022-08-21T11:13:30;2.73;;;0.50;;
27145;SDS011;17980;51.744;7.190;2022-08-21T11:16:02;2.90;;;0.57;;
27145;SDS011;17980;51.744;7.190;2022-08-21T11:18:33;3.30;;;0.60;;
27145;SDS011;17980;51.744;7.190;2022-08-21T11:21:12;2.20;;;0.60;;
27145;SDS011;17980;51.744;7.190;2022-08-21T11:23:40;4.10;;;0.63;;
27145;SDS011;17980;51.744;7.190;2022-08-21T11:26:18;4.00;;;0.70;;
27145;SDS011;17980;51.744;7.190;2022-08-21T11:28:50;5.17;;;0.87;;
27145;SDS011;17980;51.744;7.190;2022-08-21T11:31:31;2.43;;;0.80;;
27145;SDS011;17980;51.744;7.190;2022-08-21T11:34:09;3.27;;;0.50;;
27145;SDS011;17980;51.744;7.190;2022-08-21T11:36:45;2.73;;;0.67;;
27145;SDS011;17980;51.744;7.190;2022-08-21T11:39:22;1.97;;;0.50;;
27145;SDS011;17980;51.744;7.190;2022-08-21T11:41:54;4.13;;;0.50;;
27145;SDS011;17980;51.744;7.190;2022-08-21T11:46:54;3.83;;;0.50;;
27145;SDS011;17980;51.744;7.190;2022-08-21T11:49:34;2.30;;;0.60;;
27145;SDS011;17980;51.744;7.190;2022-08-21T11:52:31;4.27;;;1.13;;
27145;SDS011;17980;51.744;7.190;2022-08-21T11:55:02;4.57;;;0.80;;
27145;SDS011;17980;51.744;7.190;2022-08-21T11:57:49;4.20;;;0.80;;
27145;SDS011;17980;51.744;7.190;2022-08-21T12:00:19;5.73;;;0.73;;
27145;SDS011;17980;51.744;7.190;2022-08-21T12:02:50;3.00;;;0.80;;
27145;SDS011;17980;51.744;7.190;2022-08-21T12:05:26;4.47;;;0.70;;
27145;SDS011;17980;51.744;7.190;2022-08-21T12:08:01;4.70;;;0.80;;
27145;SDS011;17980;51.744;7.190;2022-08-21T12:10:33;1.43;;;0.67;;
27145;SDS011;17980;51.744;7.190;2022-08-21T12:13:11;3.33;;;0.70;;
27145;SDS011;17980;51.744;7.190;2022-08-21T12:15:50;3.73;;;0.90;;
27145;SDS011;17980;51.744;7.190;2022-08-21T12:18:22;3.70;;;0.70;;
27145;SDS011;17980;51.744;7.190;2022-08-21T12:21:00;9.43;;;0.70;;
27145;SDS011;17980;51.744;7.190;2022-08-21T12:23:45;3.90;;;0.60;;
27145;SDS011;17980;51.744;7.190;2022-08-21T12:26:25;4.03;;;0.60;;
27145;SDS011;17980;51.744;7.190;2022-08-21T12:29:15;3.87;;;0.80;;
27145;SDS011;17980;51.744;7.190;2022-08-21T12:31:53;3.53;;;1.00;;
27145;SDS011;17980;51.744;7.190;2022-08-21T12:34:28;3.27;;;0.57;;
27145;SDS011;17980;51.744;7.190;2022-08-21T12:37:03;2.00;;;0.60;;
27145;SDS011;17980;51.744;7.190;2022-08-21T12:39:42;3.20;;;0.57;;
27145;SDS011;17980;51.744;7.190;2022-08-21T12:42:11;4.57;;;1.13;;
27145;SDS011;17980;51.744;7.190;2022-08-21T12:44:43;1.17;;;0.50;;
27145;SDS011;17980;51.744;7.190;2022-08-21T12:47:24;3.67;;;0.53;;
27145;SDS011;17980;51.744;7.190;2022-08-21T12:49:56;4.27;;;0.40;;
27145;SDS011;17980;51.744;7.190;2022-08-21T12:52:29;0.93;;;0.50;;
27145;SDS011;17980;51.744;7.190;2022-08-21T12:54:58;4.73;;;0.97;;
27145;SDS011;17980;51.744;7.190;2022-08-21T12:57:27;2.47;;;0.70;;
27145;SDS011;17980;51.744;7.190;2022-08-21T13:00:07;3.17;;;0.70;;
27145;SDS011;17980;51.744;7.190;2022-08-21T13:02:38;2.87;;;0.70;;
27145;SDS011;17980;51.744;7.190;2022-08-21T13:07:47;2.50;;;0.50;;
27145;SDS011;17980;51.744;7.190;2022-08-21T13:10:18;1.80;;;0.60;;
27145;SDS011;17980;51.744;7.190;2022-08-21T13:12:48;2.57;;;0.60;;
27145;SDS011;17980;51.744;7.190;2022-08-21T13:15:21;1.40;;;0.57;;
27145;SDS011;17980;51.744;7.190;2022-08-21T13:18:18;1.70;;;0.60;;
27145;SDS011;17980;51.744;7.190;2022-08-21T13:21:03;0.77;;;0.37;;
27145;SDS011;17980;51.744;7.190;2022-08-21T13:23:32;3.43;;;0.67;;
27145;SDS011;17980;51.744;7.190;2022-08-21T13:26:00;4.67;;;0.80;;
27145;SDS011;17980;51.744;7.190;2022-08-21T13:28:37;6.30;;;1.00;;
27145;SDS011;17980;51.744;7.190;2022-08-21T13:31:07;4.73;;;0.70;;
27145;SDS011;17980;51.744;7.190;2022-08-21T13:33:36;2.93;;;0.53;;
27145;SDS011;17980;51.744;7.190;2022-08-21T13:36:14;3.97;;;0.70;;
27145;SDS011;17980;51.744;7.190;2022-08-21T13:38:45;1.80;;;0.93;;
27145;SDS011;17980;51.744;7.190;2022-08-21T13:41:19;1.43;;;0.60;;
27145;SDS011;17980;51.744;7.190;2022-08-21T13:43:57;1.50;;;0.50;;
27145;SDS011;17980;51.744;7.190;2022-08-21T13:46:26;3.80;;;0.70;;
27145;SDS011;17980;51.744;7.190;2022-08-21T13:49:04;5.93;;;0.80;;
27145;SDS011;17980;51.744;7.190;2022-08-21T13:51:32;2.40;;;0.80;;
27145;SDS011;17980;51.744;7.190;2022-08-21T13:54:01;3.40;;;0.70;;
27145;SDS011;17980;51.744;7.190;2022-08-21T13:56:32;5.30;;;0.80;;
27145;SDS011;17980;51.744;7.190;2022-08-21T13:59:09;4.33;;;0.60;;
27145;SDS011;17980;51.744;7.190;2022-08-21T14:01:37;1.60;;;0.50;;
27145;SDS011;17980;51.744;7.190;2022-08-21T14:04:07;2.13;;;0.50;;
27145;SDS011;17980;51.744;7.190;2022-08-21T14:06:48;2.07;;;0.43;;
27145;SDS011;17980;51.744;7.190;2022-08-21T14:09:21;2.13;;;0.70;;
27145;SDS011;17980;51.744;7.190;2022-08-21T14:11:51;1.80;;;0.77;;
27145;SDS011;17980;51.744;7.190;2022-08-21T14:14:21;1.80;;;0.50;;
27145;SDS011;17980;51.744;7.190;2022-08-21T14:19:19;4.17;;;0.57;;
27145;SDS011;17980;51.744;7.190;2022-08-21T14:21:48;1.80;;;0.57;;
27145;SDS011;17980;51.744;7.190;2022-08-21T14:24:25;1.77;;;0.47;;
27145;SDS011;17980;51.744;7.190;2022-08-21T14:26:56;2.57;;;0.40;;
27145;SDS011;17980;51.744;7.190;2022-08-21T14:29:34;5.20;;;0.50;;
27145;SDS011;17980;51.744;7.190;2022-08-21T14:32:09;3.20;;;0.67;;
27145;SDS011;17980;51.744;7.190;2022-08-21T14:34:40;2.27;;;0.70;;
27145;SDS011;17980;51.744;7.190;2022-08-21T14:37:07;1.37;;;0.60;;
27145;SDS011;17980;51.744;7.190;2022-08-21T14:39:44;2.03;;;0.77;;
27145;SDS011;17980;51.744;7.190;2022-08-21T14:42:11;4.30;;;0.50;;
27145;SDS011;17980;51.744;7.190;2022-08-21T14:44:39;1.70;;;0.50;;
27145;SDS011;17980;51.744;7.190;2022-08-21T14:47:08;1.63;;;0.40;;
27145;SDS011;17980;51.744;7.190;2022-08-21T14:49:45;3.17;;;0.57;;
27145;SDS011;17980;51.744;7.190;2022-08-21T14:52:13;1.13;;;0.50;;
27145;SDS011;17980;51.744;7.190;2022-08-21T14:54:40;1.80;;;0.60;;
27145;SDS011;17980;51.744;7.190;2022-08-21T14:57:08;2.30;;;0.67;;
27145;SDS011;17980;51.744;7.190;2022-08-21T14:59:46;4.80;;;1.00;;
27145;SDS011;17980;51.744;7.190;2022-08-21T15:02:13;3.60;;;0.43;;
27145;SDS011;17980;51.744;7.190;2022-08-21T15:04:42;2.67;;;0.77;;
27145;SDS011;17980;51.744;7.190;2022-08-21T15:07:09;3.30;;;0.50;;
27145;SDS011;17980;51.744;7.190;2022-08-21T15:09:37;2.23;;;0.60;;
27145;SDS011;17980;51.744;7.190;2022-08-21T15:12:14;1.57;;;0.30;;
27145;SDS011;17980;51.744;7.190;2022-08-21T15:14:44;2.20;;;0.53;;
27145;SDS011;17980;51.744;7.190;2022-08-21T15:17:12;1.17;;;0.50;;
27145;SDS011;17980;51.744;7.190;2022-08-21T15:19:40;2.10;;;0.60;;
27145;SDS011;17980;51.744;7.190;2022-08-21T15:22:07;1.43;;;0.50;;